AirNav   ProFlight Series 2 Aviation Headset
 
 396 users online  

8NC2 Summey Airpark
Caroleen, North Carolina, USA

GOING TO CAROLEEN?


FAA INFORMATION EFFECTIVE 18 JUNE 2020

Location

FAA Identifier: 8NC2
Lat/Long: 35-17-21.4420N 081-47-06.3620W
35-17.357367N 081-47.106033W
35.2892894,-81.7851006
(estimated)
Elevation: 1000 ft. / 305 m (estimated)
Variation: 04W (1985)
From city: 2 miles SW of CAROLEEN, NC
Time zone: UTC -4 (UTC -5 during Standard Time)
Zip code: 28019

Airport Operations

Airport use: Private use. Permission required prior to landing
Activation date: 04/1991
Control tower: no
ARTCC: ATLANTA CENTER
FSS: RALEIGH FLIGHT SERVICE STATION
Attendance: UNATNDD
Wind indicator: yes
Segmented circle: no

Airport Communications

WX AWOS-3 at EHO (9 nm E): 118.425 (704-487-0100)
WX AWOS-3 at FQD (11 nm NW): 118.275 (828-287-6498)

Nearby radio navigation aids

VOR radial/distance  VOR name  Freq  Var
SPAr026/16.8SPARTANBURG VORTAC115.7002W
SUGr109/24.7SUGARLOAF MOUNTAIN VORTAC112.2002W

 
NDB name  Hdg/Dist  Freq  Var  ID
FIRST RIVER290/9.441706WSLP ... .-.. .--.
FAIRMONT028/25.324805WFRT ..-. .-. -
FIDDLERS199/25.939107WFIQ ..-. .. --.-
STONIA287/31.326006WGHJ --. .... .---
BROAD RIVER095/33.637907WBRA -... .-. .-
UNION COUNTY355/37.032606WUOT ..- --- -

Airport Services

Runway Information

Runway 14/32

Dimensions: 2500 x 120 ft. / 762 x 37 m
Surface: turf
RUNWAY 14  RUNWAY 32
Traffic pattern: leftleft
Obstructions: 50 ft. pline, 200 ft. from runwaynone

Airport Ownership and Management from official FAA records

Ownership: Privately-owned
Owner: J. CLARK SUMMEY
196 SCRUGGS ROAD
GAFFNEY, SC 29341
Phone 864-461-3888
Manager: J. CLARK SUMMEY
196 SCRUGGS ROAD
GAFFNEY, SC 29341
Phone 864-812-0482

Airport Operational Statistics

Aircraft based on the field: 2
Single engine airplanes: 2
    

Additional Remarks

FOR CD CTC ATLANTA ARTCC AT 770-210-7692.

Instrument Procedures

There are no published instrument procedures at 8NC2.

Some nearby airports with instrument procedures:

KEHO - Shelby-Cleveland County Regional Airport (9 nm E)
KFQD - Rutherford County Airport-Marchman Field (11 nm NW)
KSPA - Spartanburg Downtown Memorial Airport/Simpson Field (24 nm S)
KAKH - Gastonia Municipal Airport (32 nm E)
KGSP - Greenville Spartanburg International Airport (32 nm SW)
 
Loc | Ops | Rwys | IFR | FBO | Links
Com | Nav | Svcs | Stats | Notes
Area around 8NC2 (Summey Airpark)
 
Road maps at: MapQuest Bing Google
 
Aerial photo
WARNING: Photo may not be current or correct
Aerial photo of 8NC2 (Summey Airpark)
Taken in September 2005

Do you have a better or more recent aerial photo of Summey Airpark that you would like to share? If so, please send us your photo.

 
Sectional chart

 
Airport distance calculator
Flying to Summey Airpark? Find the distance to fly.

From to 8NC2

Sunrise and sunset
Times for 05-Jul-2020
 Local
(UTC-4)
 Zulu
(UTC)
Morning civil twilight05:5009:50
Sunrise06:1910:19
Sunset20:4400:44
Evening civil twilight21:1401:14

Current date and time
Zulu (UTC)  05-Jul-2020 05:58:40
Local (UTC-4)  05-Jul-2020 01:58:40
 
METAR
KEHO 
9nm E 
050535Z AUTO 00000KT 7SM CLR 22/22 A2997 RMK AO2 T02230217
KSPA 
17nm SW 
050555Z AUTO 16003KT 3SM BR CLR 23/21 A2997 RMK AO2
TAF
KGSP 
32nm SW 
050402Z 0504/0524 00000KT 2SM HZ SCT120 FM050600 VRB02KT P6SM SCT050 BKN250 FM051500 18003KT P6SM SCT050 FM051800 16007KT P6SM BKN060 PROB30 0518/0524 4SM TSRA BR BKN025CB
KHKY 
34nm NE 
041746Z 0418/0518 17003KT P6SM VCTS SCT060CB FM050200 VRB02KT P6SM FEW050 FM051200 00000KT P6SM FEW250 FM051600 VRB02KT P6SM SCT045 PROB30 0516/0518 4SM TSRA BR BKN045CB
KAVL 
38nm W 
041740Z 0418/0518 21006KT P6SM VCTS SCT040CB TEMPO 0421/0423 4SM -TSRA BR BKN040CB FM050300 00000KT P6SM FEW060 FM051000 00000KT 4SM BR FEW250 FM051500 18005KT P6SM SCT050 PROB30 0515/0518 4SM TSRA BR BKN050CB
KGMU 
38nm SW 
050354Z 0504/0524 35003KT 5SM HZ SCT120 FM050700 VRB02KT P6SM SCT050 BKN250 FM051500 18003KT P6SM SCT050 FM051800 16007KT P6SM BKN060 PROB30 0518/0524 4SM TSRA BR BKN025CB
NOTAMs
Click for the latest NOTAMs
NOTAMs are issued by the DoD/FAA and will open in a separate window not controlled by AirNav.

 

 
 

Would you like to see your business listed on this page?

 If your business provides an interesting product or service to pilots, flight crews, aircraft, or users of the Summey Airpark, you should consider listing it here.  To start the listing process, click on the button below
 
Add a business
 

Other Pages about Summey Airpark

Update a link
 
Copyright © AirNav, LLC. All rights reserved. Privacy Policy  Contact